TimeCST,TemperatureF,Dew PointF,Humidity,Sea Level PressureIn,VisibilityMPH,Wind Direction,Wind SpeedMPH,Gust SpeedMPH,PrecipitationIn,Events,Conditions,WindDirDegrees,DateUTC
12:15 AM,53.4,33.8,47,30.15,10.0,SSE,9.2,-,N/A,,Light Drizzle,160,2012-11-19 06:15:00
12:35 AM,53.4,32.7,45,30.14,10.0,SSE,12.7,-,N/A,,Overcast,160,2012-11-19 06:35:00
12:55 AM,53.6,32.4,44,30.13,10.0,SSE,10.4,-,N/A,,Overcast,150,2012-11-19 06:55:00
1:15 AM,53.6,32.7,45,30.13,10.0,SSE,9.2,-,N/A,,Overcast,150,2012-11-19 07:15:00
1:35 AM,53.1,33.6,48,30.13,10.0,SSE,10.4,-,N/A,,Overcast,150,2012-11-19 07:35:00
1:55 AM,52.9,33.4,48,30.12,10.0,SSE,12.7,-,N/A,,Overcast,150,2012-11-19 07:55:00
2:15 AM,53.6,33.3,46,30.12,10.0,SSE,13.8,18.4,N/A,,Overcast,150,2012-11-19 08:15:00
2:35 AM,53.8,32.9,45,30.11,10.0,SSE,15.0,-,N/A,,Overcast,150,2012-11-19 08:35:00
2:55 AM,53.8,32.7,45,30.11,10.0,SSE,11.5,-,N/A,,Overcast,150,2012-11-19 08:55:00
3:15 AM,53.6,32.7,45,30.10,10.0,SSE,10.4,-,N/A,,Overcast,150,2012-11-19 09:15:00
3:35 AM,52.7,33.4,48,30.10,10.0,SSE,11.5,-,N/A,,Overcast,150,2012-11-19 09:35:00
3:55 AM,52.5,33.1,48,30.09,10.0,SSE,9.2,-,N/A,,Scattered Clouds,160,2012-11-19 09:55:00
4:15 AM,51.8,33.1,49,30.09,10.0,SSE,10.4,-,N/A,,Clear,160,2012-11-19 10:15:00
4:35 AM,51.3,32.9,50,30.09,10.0,SSE,11.5,-,N/A,,Clear,150,2012-11-19 10:35:00
4:55 AM,50.4,33.1,52,30.09,10.0,SSE,10.4,-,N/A,,Clear,160,2012-11-19 10:55:00
5:15 AM,49.3,33.6,55,30.09,10.0,SSE,10.4,-,N/A,,Clear,160,2012-11-19 11:15:00
5:35 AM,48.6,33.8,57,30.09,10.0,SSE,9.2,-,N/A,,Clear,160,2012-11-19 11:35:00
5:55 AM,48.6,34.0,57,30.09,10.0,SSE,10.4,-,N/A,,Clear,160,2012-11-19 11:55:00
6:15 AM,48.4,34.2,58,30.09,10.0,SSE,9.2,-,N/A,,Clear,160,2012-11-19 12:15:00
6:35 AM,48.2,34.7,60,30.09,10.0,South,10.4,-,N/A,,Clear,170,2012-11-19 12:35:00
6:55 AM,47.3,34.9,62,30.09,10.0,SSE,9.2,-,N/A,,Clear,160,2012-11-19 12:55:00
7:35 AM,47.7,35.6,63,30.09,10.0,South,12.7,-,N/A,,Clear,170,2012-11-19 13:35:00
7:55 AM,48.9,36.5,62,30.09,10.0,South,12.7,-,N/A,,Clear,170,2012-11-19 13:55:00
8:15 AM,50.0,36.9,61,30.09,10.0,South,12.7,17.3,N/A,,Clear,170,2012-11-19 14:15:00
8:35 AM,50.9,37.9,61,30.09,10.0,South,12.7,18.4,N/A,,Clear,180,2012-11-19 14:35:00
8:55 AM,52.3,39.6,62,30.09,10.0,South,11.5,24.2,N/A,,Clear,180,2012-11-19 14:55:00
9:15 AM,53.6,41.5,64,30.09,10.0,South,18.4,23.0,N/A,,Clear,180,2012-11-19 15:15:00
9:35 AM,54.5,42.4,64,30.09,10.0,South,17.3,24.2,N/A,,Clear,190,2012-11-19 15:35:00
9:55 AM,55.2,42.8,63,30.09,10.0,South,17.3,24.2,N/A,,Clear,190,2012-11-19 15:55:00
10:15 AM,55.4,43.0,63,30.09,10.0,South,17.3,25.3,N/A,,Clear,190,2012-11-19 16:15:00
10:35 AM,56.7,43.7,62,30.08,10.0,SSW,16.1,23.0,N/A,,Clear,200,2012-11-19 16:35:00
10:55 AM,57.6,44.1,61,30.08,10.0,South,16.1,20.7,N/A,,Clear,170,2012-11-19 16:55:00
11:15 AM,58.5,44.2,59,30.07,10.0,SSW,13.8,-,N/A,,Clear,210,2012-11-19 17:15:00
11:35 AM,59.0,44.1,58,30.06,10.0,SSW,13.8,19.6,N/A,,Clear,210,2012-11-19 17:35:00
11:55 AM,59.7,44.6,57,30.06,10.0,South,11.5,-,N/A,,Clear,190,2012-11-19 17:55:00
12:15 PM,60.1,44.6,57,30.05,10.0,South,10.4,18.4,N/A,,Clear,190,2012-11-19 18:15:00
12:35 PM,60.8,44.6,55,30.05,10.0,South,13.8,18.4,N/A,,Clear,190,2012-11-19 18:35:00
12:55 PM,61.3,44.8,55,30.05,10.0,SSW,10.4,-,N/A,,Clear,200,2012-11-19 18:55:00
1:15 PM,61.9,44.6,53,30.04,10.0,SSW,12.7,18.4,N/A,,Clear,210,2012-11-19 19:15:00
1:35 PM,62.2,44.6,52,30.03,10.0,SSW,10.4,17.3,N/A,,Clear,200,2012-11-19 19:35:00
1:55 PM,62.6,44.6,52,30.02,10.0,South,9.2,17.3,N/A,,Clear,190,2012-11-19 19:55:00
2:15 PM,62.8,44.8,52,30.02,10.0,South,12.7,-,N/A,,Clear,190,2012-11-19 20:15:00
2:35 PM,63.1,44.8,51,30.02,10.0,SW,10.4,-,N/A,,Clear,220,2012-11-19 20:35:00
2:55 PM,63.0,44.2,50,30.02,10.0,SW,11.5,-,N/A,,Clear,220,2012-11-19 20:55:00
3:15 PM,62.8,44.4,51,30.03,10.0,SW,11.5,-,N/A,,Clear,220,2012-11-19 21:15:00
3:35 PM,62.2,44.6,52,30.03,10.0,SSW,12.7,-,N/A,,Clear,210,2012-11-19 21:35:00
3:55 PM,61.0,44.6,55,30.03,10.0,SSW,11.5,-,N/A,,Clear,200,2012-11-19 21:55:00
4:15 PM,60.6,44.6,56,30.03,10.0,South,6.9,-,N/A,,Clear,190,2012-11-19 22:15:00
4:35 PM,58.5,44.6,60,30.03,10.0,South,5.8,-,N/A,,Clear,190,2012-11-19 22:35:00
4:55 PM,55.2,43.9,66,30.04,10.0,Calm,Calm,-,N/A,,Clear,0,2012-11-19 22:55:00
5:15 PM,55.6,44.2,66,30.04,10.0,SSW,3.5,-,N/A,,Clear,210,2012-11-19 23:15:00
5:35 PM,55.2,44.4,67,30.04,10.0,SSW,3.5,-,N/A,,Clear,200,2012-11-19 23:35:00
5:55 PM,52.5,44.4,74,30.04,10.0,South,4.6,-,N/A,,Clear,190,2012-11-19 23:55:00
6:15 PM,48.2,40.6,75,30.05,10.0,South,3.5,-,N/A,,Clear,170,2012-11-20 00:15:00
6:35 PM,47.7,42.3,82,30.05,10.0,South,3.5,-,N/A,,Clear,180,2012-11-20 00:35:00
6:55 PM,49.8,43.9,80,30.05,10.0,South,4.6,-,N/A,,Clear,190,2012-11-20 00:55:00
7:15 PM,48.9,42.4,78,30.05,10.0,South,4.6,-,N/A,,Clear,190,2012-11-20 01:15:00
7:35 PM,49.1,42.3,77,30.05,10.0,South,6.9,-,N/A,,Clear,190,2012-11-20 01:35:00
7:55 PM,48.6,41.9,78,30.05,10.0,South,8.1,-,N/A,,Clear,190,2012-11-20 01:55:00
8:15 PM,48.4,42.3,79,30.05,10.0,SW,8.1,-,N/A,,Clear,220,2012-11-20 02:15:00
8:35 PM,47.1,42.1,83,30.06,10.0,WSW,5.8,-,N/A,,Clear,250,2012-11-20 02:35:00
8:55 PM,47.3,41.5,80,30.06,10.0,West,6.9,-,N/A,,Clear,260,2012-11-20 02:55:00
9:15 PM,46.9,40.6,79,30.06,10.0,West,5.8,-,N/A,,Clear,270,2012-11-20 03:15:00
9:35 PM,43.7,39.6,85,30.06,10.0,West,3.5,-,N/A,,Clear,270,2012-11-20 03:35:00
9:55 PM,43.7,38.5,82,30.06,10.0,West,5.8,-,N/A,,Clear,270,2012-11-20 03:55:00
10:15 PM,43.7,38.3,81,30.06,10.0,West,5.8,-,N/A,,Clear,280,2012-11-20 04:15:00
10:35 PM,42.3,37.4,83,30.06,10.0,WNW,5.8,-,N/A,,Clear,290,2012-11-20 04:35:00
10:55 PM,41.9,36.9,82,30.06,10.0,West,5.8,-,N/A,,Clear,280,2012-11-20 04:55:00
11:15 PM,41.4,36.7,83,30.06,10.0,West,5.8,-,N/A,,Clear,280,2012-11-20 05:15:00
11:35 PM,41.9,36.7,82,30.05,10.0,West,6.9,-,N/A,,Clear,270,2012-11-20 05:35:00
11:55 PM,41.4,36.7,83,30.06,10.0,West,8.1,-,N/A,,Clear,270,2012-11-20 05:55:00